createdAt,value
2023-10-05T00:02:12.695Z,8.67
2023-10-05T00:04:45.483Z,5.90
2023-10-05T00:07:29.325Z,5.50
2023-10-05T00:09:58.445Z,6.13
2023-10-05T00:12:25.731Z,5.17
2023-10-05T00:15:17.313Z,5.10
2023-10-05T00:17:44.398Z,6.13
2023-10-05T00:20:25.670Z,5.47
2023-10-05T00:22:52.852Z,5.47
2023-10-05T00:25:21.405Z,5.23
2023-10-05T00:27:52.766Z,5.10
2023-10-05T00:30:20.105Z,6.00
2023-10-05T00:32:53.273Z,5.63
2023-10-05T00:35:33.443Z,5.77
2023-10-05T00:38:17.608Z,5.70
2023-10-05T00:40:57.244Z,4.90
2023-10-05T00:43:24.286Z,5.57
2023-10-05T00:45:52.210Z,5.10
2023-10-05T00:48:40.284Z,5.13
2023-10-05T00:51:24.698Z,4.77
2023-10-05T00:53:53.506Z,5.20
2023-10-05T00:56:24.433Z,5.00
2023-10-05T00:59:07.116Z,4.60
2023-10-05T01:01:55.000Z,4.63
2023-10-05T01:04:41.727Z,4.77
2023-10-05T01:07:24.611Z,5.40
2023-10-05T01:10:01.950Z,5.03
2023-10-05T01:12:37.920Z,5.37
2023-10-05T01:15:12.223Z,5.63
2023-10-05T01:17:40.528Z,5.23
2023-10-05T01:20:20.220Z,5.40
2023-10-05T01:22:47.878Z,4.80
2023-10-05T01:25:15.986Z,4.77
2023-10-05T01:27:50.406Z,4.53
2023-10-05T01:30:17.521Z,4.50
2023-10-05T01:32:46.244Z,3.90
2023-10-05T01:35:15.779Z,3.87
2023-10-05T01:37:45.070Z,4.03
2023-10-05T01:40:22.032Z,3.60
2023-10-05T01:42:50.161Z,3.10
2023-10-05T01:45:20.765Z,3.77
2023-10-05T01:47:47.853Z,3.83
2023-10-05T01:50:23.615Z,3.83
2023-10-05T01:53:17.891Z,4.03
2023-10-05T01:55:48.856Z,3.97
2023-10-05T01:58:28.317Z,3.37
2023-10-05T02:00:55.839Z,3.57
2023-10-05T02:03:26.434Z,3.63
2023-10-05T02:05:59.709Z,3.40
2023-10-05T02:08:28.698Z,3.47
2023-10-05T02:10:55.618Z,4.03
2023-10-05T02:13:24.640Z,3.30
2023-10-05T02:16:00.068Z,3.40
2023-10-05T02:18:31.982Z,3.53
2023-10-05T02:21:07.472Z,3.00
2023-10-05T02:23:43.636Z,3.33
2023-10-05T02:26:33.176Z,3.40
2023-10-05T02:29:00.159Z,3.97
2023-10-05T02:31:30.362Z,3.60
2023-10-05T02:33:57.535Z,3.70
2023-10-05T02:36:31.677Z,3.80
2023-10-05T02:39:02.105Z,3.87
2023-10-05T02:41:39.446Z,3.70
2023-10-05T02:44:18.295Z,3.30
2023-10-05T02:46:48.868Z,3.37
2023-10-05T02:49:17.225Z,3.60
2023-10-05T02:51:47.645Z,3.33
2023-10-05T02:54:15.978Z,3.33
2023-10-05T02:56:43.033Z,3.40
2023-10-05T02:59:15.865Z,3.10
2023-10-05T03:01:46.125Z,3.60
2023-10-05T03:04:13.009Z,3.93
2023-10-05T03:06:40.624Z,3.67
2023-10-05T03:09:11.098Z,3.27
2023-10-05T03:11:43.664Z,3.13
2023-10-05T03:14:11.722Z,3.10
2023-10-05T03:16:48.947Z,3.30
2023-10-05T03:19:24.546Z,3.40
2023-10-05T03:21:59.495Z,2.80
2023-10-05T03:24:26.924Z,2.80
2023-10-05T03:26:55.421Z,3.13
2023-10-05T03:29:23.586Z,3.43
2023-10-05T03:31:55.565Z,3.00
2023-10-05T03:34:27.791Z,3.17
2023-10-05T03:36:55.788Z,3.30
2023-10-05T03:39:29.389Z,3.00
2023-10-05T03:41:56.746Z,3.20
2023-10-05T03:44:25.556Z,2.47
2023-10-05T03:46:53.395Z,2.90
2023-10-05T03:49:25.325Z,3.10
2023-10-05T03:51:52.999Z,2.77
2023-10-05T03:54:25.859Z,3.23
2023-10-05T03:57:11.625Z,2.50
2023-10-05T03:59:41.145Z,2.90
2023-10-05T04:02:08.412Z,2.67
2023-10-05T04:04:38.705Z,3.33
2023-10-05T04:07:05.640Z,2.93
2023-10-05T04:09:34.427Z,2.60
2023-10-05T04:12:01.967Z,3.33
2023-10-05T04:14:29.923Z,3.30
2023-10-05T04:17:00.654Z,3.30
2023-10-05T04:19:27.499Z,3.00
2023-10-05T04:21:57.365Z,2.83
2023-10-05T04:24:24.228Z,3.17
2023-10-05T04:26:52.488Z,2.90
2023-10-05T04:29:22.235Z,2.87
2023-10-05T04:31:49.959Z,2.87
2023-10-05T04:34:19.774Z,2.47
2023-10-05T04:36:49.698Z,3.17
2023-10-05T04:39:30.774Z,2.80
2023-10-05T04:42:05.867Z,3.00
2023-10-05T04:44:32.900Z,2.93
2023-10-05T04:46:59.693Z,2.90
2023-10-05T04:49:28.404Z,3.07
2023-10-05T04:51:58.287Z,2.90
2023-10-05T04:54:27.110Z,2.90
2023-10-05T04:56:54.063Z,2.70
2023-10-05T04:59:37.209Z,3.00
2023-10-05T05:02:22.681Z,3.50
2023-10-05T05:04:52.798Z,3.03
2023-10-05T05:07:22.521Z,2.90
2023-10-05T05:09:51.793Z,3.07
2023-10-05T05:12:19.267Z,3.37
2023-10-05T05:14:47.461Z,3.13
2023-10-05T05:17:24.886Z,3.10
2023-10-05T05:19:54.881Z,3.40
2023-10-05T05:22:21.708Z,3.90
2023-10-05T05:24:51.339Z,2.83
2023-10-05T05:27:18.128Z,3.47
2023-10-05T05:29:45.525Z,3.97
2023-10-05T05:32:12.959Z,3.60
2023-10-05T05:34:42.574Z,4.20
2023-10-05T05:37:15.011Z,5.00
2023-10-05T05:39:42.070Z,7.10
2023-10-05T05:42:15.810Z,8.13
2023-10-05T05:44:43.094Z,7.20
2023-10-05T05:47:11.439Z,6.53
2023-10-05T05:49:41.898Z,6.00
2023-10-05T05:52:15.376Z,5.20
2023-10-05T05:54:43.739Z,5.20
2023-10-05T05:57:13.218Z,5.30
2023-10-05T05:59:40.751Z,3.80
2023-10-05T06:02:08.831Z,3.73
2023-10-05T06:04:40.749Z,3.27
2023-10-05T06:07:15.102Z,3.23
2023-10-05T06:10:15.811Z,3.27
2023-10-05T06:12:45.135Z,3.60
2023-10-05T06:15:14.720Z,3.60
2023-10-05T06:17:42.619Z,3.53
2023-10-05T06:20:15.473Z,3.60
2023-10-05T06:22:44.948Z,4.00
2023-10-05T06:25:16.527Z,4.20
2023-10-05T06:27:45.086Z,2.90
2023-10-05T06:30:12.766Z,3.40
2023-10-05T06:32:39.612Z,2.77
2023-10-05T06:35:09.238Z,2.80
2023-10-05T06:37:50.309Z,3.07
2023-10-05T06:40:22.655Z,3.63
2023-10-05T06:42:50.834Z,3.30
2023-10-05T06:45:20.555Z,3.13
2023-10-05T06:47:47.712Z,2.93
2023-10-05T06:50:14.716Z,3.57
2023-10-05T06:52:47.730Z,2.73
2023-10-05T06:55:18.676Z,2.97
2023-10-05T06:57:46.139Z,3.03
2023-10-05T07:00:21.241Z,3.27
2023-10-05T07:03:00.944Z,3.07
2023-10-05T07:05:30.933Z,3.20
2023-10-05T07:07:57.833Z,3.63
2023-10-05T07:10:25.237Z,3.10
2023-10-05T07:12:52.146Z,3.30
2023-10-05T07:15:20.448Z,3.30
2023-10-05T07:17:49.693Z,3.00
2023-10-05T07:20:17.985Z,3.20
2023-10-05T07:22:46.876Z,2.73
2023-10-05T07:25:18.859Z,3.23
2023-10-05T07:27:47.021Z,3.23
2023-10-05T07:30:14.266Z,3.80
2023-10-05T07:32:42.101Z,3.07
2023-10-05T07:35:14.373Z,3.10
2023-10-05T07:37:42.501Z,3.13
2023-10-05T07:40:10.260Z,3.23
2023-10-05T07:42:38.923Z,3.40
2023-10-05T07:45:09.375Z,3.63
2023-10-05T07:47:45.853Z,3.40
2023-10-05T07:50:14.245Z,3.17
2023-10-05T07:52:45.083Z,3.40
2023-10-05T07:55:12.237Z,3.63
2023-10-05T07:57:39.679Z,3.10
2023-10-05T08:00:12.372Z,3.20
2023-10-05T08:02:40.008Z,3.10
2023-10-05T08:05:07.546Z,3.50
2023-10-05T08:07:34.380Z,3.37
2023-10-05T08:10:01.520Z,3.27
2023-10-05T08:12:31.286Z,3.60
2023-10-05T08:15:01.274Z,3.10
2023-10-05T08:17:28.776Z,3.03
2023-10-05T08:19:58.060Z,3.23
2023-10-05T08:22:25.874Z,3.90
2023-10-05T08:24:54.049Z,3.40
2023-10-05T08:27:21.233Z,3.37
2023-10-05T08:29:48.566Z,3.40
2023-10-05T08:32:17.297Z,3.17
2023-10-05T08:34:46.334Z,3.43
2023-10-05T08:37:14.832Z,3.50
2023-10-05T08:39:42.313Z,3.17
2023-10-05T08:42:09.409Z,3.10
2023-10-05T08:44:40.454Z,3.33
2023-10-05T08:47:16.674Z,3.10
2023-10-05T08:49:44.516Z,3.33
2023-10-05T08:52:20.151Z,3.37
2023-10-05T08:54:52.757Z,2.87
2023-10-05T08:57:21.007Z,2.80
2023-10-05T08:59:48.395Z,3.10
2023-10-05T09:02:22.997Z,3.00
2023-10-05T09:05:08.581Z,4.07
2023-10-05T09:07:39.800Z,3.03
2023-10-05T09:10:09.872Z,3.20
2023-10-05T09:12:38.726Z,3.33
2023-10-05T09:15:27.720Z,3.10
2023-10-05T09:18:18.161Z,2.70
2023-10-05T09:20:49.818Z,3.33
2023-10-05T09:23:22.072Z,3.10
2023-10-05T09:25:49.607Z,2.37
2023-10-05T09:28:46.552Z,3.03
2023-10-05T09:31:15.971Z,2.90
2023-10-05T09:33:54.551Z,3.27
2023-10-05T09:36:23.399Z,2.63
2023-10-05T09:38:53.079Z,2.67
2023-10-05T09:41:21.334Z,2.97
2023-10-05T09:43:59.621Z,2.97
2023-10-05T09:46:30.797Z,2.90
2023-10-05T09:49:02.875Z,2.70
2023-10-05T09:51:30.651Z,3.07
2023-10-05T09:54:01.168Z,2.80
2023-10-05T09:56:41.404Z,2.73
2023-10-05T09:59:17.449Z,2.60
2023-10-05T10:01:48.388Z,2.90
2023-10-05T10:04:30.327Z,2.67
2023-10-05T10:06:59.944Z,2.50
2023-10-05T10:09:28.455Z,2.73
2023-10-05T10:12:01.006Z,2.60
2023-10-05T10:14:31.178Z,3.53
2023-10-05T10:17:02.214Z,3.13
2023-10-05T10:19:44.266Z,3.07
2023-10-05T10:22:13.435Z,2.90
2023-10-05T10:24:41.273Z,2.40
2023-10-05T10:27:12.688Z,2.80
2023-10-05T10:29:47.190Z,2.50
2023-10-05T10:32:21.127Z,2.70
2023-10-05T10:35:13.713Z,2.53
2023-10-05T10:37:43.960Z,2.47
2023-10-05T10:40:21.389Z,2.83
2023-10-05T10:42:54.691Z,2.60
2023-10-05T10:45:26.394Z,2.90
2023-10-05T10:47:59.981Z,2.70
2023-10-05T10:50:32.495Z,2.87
2023-10-05T10:53:00.306Z,2.57
2023-10-05T10:55:34.888Z,2.67
2023-10-05T10:58:05.261Z,2.60
2023-10-05T11:00:44.792Z,2.43
2023-10-05T11:03:13.436Z,2.87
2023-10-05T11:05:41.779Z,2.77
2023-10-05T11:08:10.591Z,2.90
2023-10-05T11:10:37.707Z,2.80
2023-10-05T11:13:29.784Z,2.50
2023-10-05T11:16:01.984Z,2.77
2023-10-05T11:18:42.409Z,2.40
2023-10-05T11:21:17.486Z,2.67
2023-10-05T11:23:48.797Z,2.87
2023-10-05T11:26:19.961Z,3.03
2023-10-05T11:28:51.046Z,3.20
2023-10-05T11:31:40.302Z,2.53
2023-10-05T11:35:10.006Z,2.70
2023-10-05T11:37:00.743Z,2.90
2023-10-05T11:39:28.641Z,2.60
2023-10-05T11:41:58.260Z,2.60
2023-10-05T11:44:25.976Z,2.53
2023-10-05T11:46:56.415Z,2.67
2023-10-05T11:49:33.965Z,2.60
2023-10-05T11:52:02.584Z,2.70
2023-10-05T11:54:32.256Z,2.97
2023-10-05T11:57:06.210Z,2.80
2023-10-05T11:59:37.042Z,2.30
2023-10-05T12:02:10.693Z,2.37
2023-10-05T12:04:41.418Z,2.60
2023-10-05T12:07:12.861Z,2.80
2023-10-05T12:09:44.221Z,2.67
2023-10-05T12:12:14.746Z,2.50
2023-10-05T12:14:42.348Z,2.40
2023-10-05T12:17:09.580Z,2.60
2023-10-05T12:19:36.853Z,2.60
2023-10-05T12:22:05.146Z,2.47
2023-10-05T12:24:32.140Z,2.40
2023-10-05T12:27:01.887Z,2.83
2023-10-05T12:29:29.241Z,2.60
2023-10-05T12:32:10.018Z,2.70
2023-10-05T12:34:37.450Z,2.90
2023-10-05T12:37:09.888Z,2.90
2023-10-05T12:39:37.306Z,2.30
2023-10-05T12:42:05.079Z,2.50
2023-10-05T12:44:33.905Z,2.70
2023-10-05T12:47:00.813Z,2.90
2023-10-05T12:49:28.421Z,2.53
2023-10-05T12:51:57.475Z,2.47
2023-10-05T12:54:30.370Z,2.63
2023-10-05T12:57:13.210Z,2.60
2023-10-05T12:59:45.171Z,2.93
2023-10-05T13:02:16.374Z,2.60
2023-10-05T13:04:43.792Z,2.90
2023-10-05T13:07:10.626Z,2.63
2023-10-05T13:09:39.530Z,2.83
2023-10-05T13:12:13.229Z,2.90
2023-10-05T13:14:40.991Z,2.93
2023-10-05T13:17:13.164Z,3.07
2023-10-05T13:19:41.009Z,2.77
2023-10-05T13:22:08.003Z,2.67
2023-10-05T13:24:35.215Z,2.87
2023-10-05T13:27:02.624Z,2.93
2023-10-05T13:29:29.768Z,2.70
2023-10-05T13:31:57.427Z,2.80
2023-10-05T13:34:29.256Z,2.87
2023-10-05T13:36:56.504Z,2.60
2023-10-05T13:39:23.448Z,2.33
2023-10-05T13:42:01.297Z,2.93
2023-10-05T13:44:29.195Z,2.70
2023-10-05T13:46:57.098Z,2.70
2023-10-05T13:49:30.113Z,2.67
2023-10-05T13:52:06.907Z,2.70
2023-10-05T13:54:36.439Z,2.60
2023-10-05T13:57:04.881Z,2.50
2023-10-05T13:59:32.387Z,2.90
2023-10-05T14:02:01.890Z,2.47
2023-10-05T14:04:31.403Z,2.70
2023-10-05T14:07:00.399Z,2.77
2023-10-05T14:09:30.185Z,2.53
2023-10-05T14:11:57.475Z,2.63
2023-10-05T14:14:24.202Z,2.63
2023-10-05T14:16:51.872Z,2.50
2023-10-05T14:19:20.756Z,2.87
2023-10-05T14:21:47.921Z,2.37
2023-10-05T14:24:18.359Z,2.70
2023-10-05T14:26:49.723Z,2.77
2023-10-05T14:29:20.845Z,2.77
2023-10-05T14:31:53.511Z,2.50
2023-10-05T14:34:22.271Z,3.20
2023-10-05T14:36:53.511Z,3.00
2023-10-05T14:39:22.588Z,3.30
2023-10-05T14:41:56.353Z,3.50
2023-10-05T14:44:25.710Z,2.70
2023-10-05T14:46:56.702Z,3.50
2023-10-05T14:49:23.790Z,2.33
2023-10-05T14:51:51.609Z,2.63
2023-10-05T14:54:23.311Z,2.73
2023-10-05T14:56:51.018Z,2.87
2023-10-05T14:59:20.334Z,2.93
2023-10-05T15:01:47.471Z,2.53
2023-10-05T15:04:14.544Z,2.50
2023-10-05T15:06:41.360Z,2.40
2023-10-05T15:09:08.546Z,2.60
2023-10-05T15:11:35.642Z,2.57
2023-10-05T15:14:03.645Z,2.57
2023-10-05T15:16:30.805Z,2.47
2023-10-05T15:18:57.616Z,2.60
2023-10-05T15:21:24.543Z,2.23
2023-10-05T15:23:51.243Z,2.70
2023-10-05T15:26:18.510Z,2.40
2023-10-05T15:28:45.490Z,2.47
2023-10-05T15:31:12.921Z,2.50
2023-10-05T15:33:41.113Z,2.63
2023-10-05T15:36:07.898Z,2.30
2023-10-05T15:38:37.427Z,2.17
2023-10-05T15:41:05.378Z,2.43
2023-10-05T15:43:33.115Z,2.80
2023-10-05T15:46:01.556Z,10.63
2023-10-05T15:48:28.994Z,7.23
2023-10-05T15:50:57.562Z,14.53
2023-10-05T15:53:24.633Z,5.47
2023-10-05T15:55:53.280Z,2.60
2023-10-05T15:58:20.406Z,2.00
2023-10-05T16:00:47.210Z,2.30
2023-10-05T16:03:15.526Z,2.50
2023-10-05T16:05:44.003Z,1.73
2023-10-05T16:08:11.634Z,4.83
2023-10-05T16:10:40.193Z,3.17
2023-10-05T16:13:11.884Z,3.80
2023-10-05T16:15:40.425Z,2.40
2023-10-05T16:18:09.123Z,2.70
2023-10-05T16:20:42.056Z,2.30
2023-10-05T16:23:11.872Z,2.50
2023-10-05T16:25:41.151Z,2.40
2023-10-05T16:28:09.302Z,2.63
2023-10-05T16:30:37.240Z,2.60
2023-10-05T16:33:06.781Z,2.73
2023-10-05T16:35:41.156Z,2.90
2023-10-05T16:38:09.746Z,3.00
2023-10-05T16:40:36.508Z,2.73
2023-10-05T16:43:03.485Z,2.70
2023-10-05T16:45:30.455Z,2.80
2023-10-05T16:47:57.185Z,2.87
2023-10-05T16:50:26.865Z,2.93
2023-10-05T16:52:55.362Z,2.47
2023-10-05T16:55:23.325Z,2.83
2023-10-05T16:57:52.649Z,2.57
2023-10-05T17:00:24.261Z,3.07
2023-10-05T17:02:53.026Z,2.77
2023-10-05T17:05:23.392Z,3.07
2023-10-05T17:07:57.551Z,3.40
2023-10-05T17:10:25.411Z,2.57
2023-10-05T17:12:52.981Z,2.47
2023-10-05T17:15:25.029Z,2.73
2023-10-05T17:17:54.333Z,3.07
2023-10-05T17:20:22.207Z,2.80
2023-10-05T17:22:53.733Z,2.77
2023-10-05T17:25:23.036Z,3.23
2023-10-05T17:27:50.125Z,3.27
2023-10-05T17:30:17.450Z,6.67
2023-10-05T17:32:47.386Z,11.40
2023-10-05T17:35:22.770Z,4.30
2023-10-05T17:37:50.699Z,3.20
2023-10-05T17:40:18.046Z,3.87
2023-10-05T17:42:44.967Z,3.20
2023-10-05T17:45:11.817Z,3.03
2023-10-05T17:47:38.714Z,3.50
2023-10-05T17:50:05.883Z,3.07
2023-10-05T17:52:33.440Z,3.50
2023-10-05T17:55:00.428Z,3.10
2023-10-05T17:57:27.250Z,3.40
2023-10-05T17:59:54.131Z,3.50
2023-10-05T18:02:21.307Z,3.40
2023-10-05T18:04:48.133Z,3.47
2023-10-05T18:07:14.896Z,3.90
2023-10-05T18:09:41.821Z,3.33
2023-10-05T18:12:09.016Z,6.80
2023-10-05T18:14:36.719Z,3.83
2023-10-05T18:17:05.997Z,4.37
2023-10-05T18:19:33.009Z,3.13
2023-10-05T18:21:59.753Z,3.10
2023-10-05T18:24:26.877Z,2.97
2023-10-05T18:26:53.729Z,2.80
2023-10-05T18:29:20.689Z,2.97
2023-10-05T18:31:47.673Z,3.37
2023-10-05T18:34:14.903Z,3.57
2023-10-05T18:36:42.412Z,3.97
2023-10-05T18:39:14.426Z,5.00
2023-10-05T18:41:41.823Z,4.50
2023-10-05T18:44:09.690Z,4.07
2023-10-05T18:46:37.091Z,3.63
2023-10-05T18:49:05.443Z,3.40
2023-10-05T18:51:32.212Z,4.23
2023-10-05T18:54:01.960Z,3.80
2023-10-05T18:56:30.152Z,3.60
2023-10-05T18:58:57.717Z,3.40
2023-10-05T19:01:25.748Z,3.53
2023-10-05T19:03:53.455Z,3.47
2023-10-05T19:06:21.741Z,3.57
2023-10-05T19:08:48.599Z,3.33
2023-10-05T19:11:16.905Z,6.30
2023-10-05T19:13:45.019Z,4.43
2023-10-05T19:16:12.169Z,6.33
2023-10-05T19:18:39.486Z,3.87
2023-10-05T19:21:11.666Z,5.10
2023-10-05T19:23:42.344Z,6.13
2023-10-05T19:26:09.337Z,4.20
2023-10-05T19:28:36.986Z,4.03
2023-10-05T19:31:04.707Z,3.97
2023-10-05T19:33:34.799Z,3.73
2023-10-05T19:36:02.717Z,3.23
2023-10-05T19:38:29.573Z,3.90
2023-10-05T19:40:56.568Z,3.47
2023-10-05T19:43:23.488Z,3.50
2023-10-05T19:45:50.641Z,3.60
2023-10-05T19:48:17.703Z,3.07
2023-10-05T19:50:44.961Z,3.80
2023-10-05T19:53:13.729Z,8.83
2023-10-05T19:55:41.052Z,11.37
2023-10-05T19:58:07.928Z,11.07
2023-10-05T20:00:34.751Z,8.23
2023-10-05T20:03:01.916Z,4.17
2023-10-05T20:05:29.917Z,3.57
2023-10-05T20:07:59.779Z,3.67
2023-10-05T20:10:30.868Z,3.50
2023-10-05T20:12:58.815Z,4.47
2023-10-05T20:15:25.892Z,3.97
2023-10-05T20:17:52.823Z,4.30
2023-10-05T20:20:21.351Z,3.50
2023-10-05T20:22:48.431Z,3.70
2023-10-05T20:25:15.230Z,3.40
2023-10-05T20:27:42.939Z,3.73
2023-10-05T20:30:12.897Z,4.20
2023-10-05T20:32:40.123Z,3.77
2023-10-05T20:35:08.454Z,3.83
2023-10-05T20:37:35.449Z,3.80
2023-10-05T20:40:04.618Z,4.03
2023-10-05T20:42:31.891Z,4.37
2023-10-05T20:45:00.754Z,3.73
2023-10-05T20:47:30.822Z,3.53
2023-10-05T20:49:58.042Z,4.03
2023-10-05T20:52:25.636Z,4.37
2023-10-05T20:54:58.775Z,3.87
2023-10-05T20:57:25.572Z,4.33
2023-10-05T20:59:53.970Z,4.00
2023-10-05T21:02:20.869Z,4.03
2023-10-05T21:04:47.750Z,3.83
2023-10-05T21:07:14.555Z,4.23
2023-10-05T21:09:41.571Z,4.60
2023-10-05T21:12:08.776Z,4.40
2023-10-05T21:14:35.470Z,4.10
2023-10-05T21:17:02.531Z,3.53
2023-10-05T21:19:29.375Z,4.00
2023-10-05T21:21:56.230Z,3.80
2023-10-05T21:24:23.076Z,3.60
2023-10-05T21:26:49.856Z,3.80
2023-10-05T21:29:16.646Z,3.97
2023-10-05T21:31:43.668Z,4.27
2023-10-05T21:34:10.437Z,3.67
2023-10-05T21:36:37.909Z,4.00
2023-10-05T21:39:05.048Z,4.47
2023-10-05T21:41:31.876Z,4.77
2023-10-05T21:43:59.476Z,4.47
2023-10-05T21:46:27.730Z,3.90
2023-10-05T21:48:54.898Z,3.77
2023-10-05T21:51:23.111Z,4.10
2023-10-05T21:53:50.004Z,4.73
2023-10-05T21:56:16.998Z,3.83
2023-10-05T21:58:43.923Z,3.93
2023-10-05T22:01:11.598Z,4.33
2023-10-05T22:03:39.245Z,4.40
2023-10-05T22:06:07.228Z,4.43
2023-10-05T22:08:34.159Z,4.17
2023-10-05T22:11:02.509Z,4.20
2023-10-05T22:13:29.659Z,4.33
2023-10-05T22:15:56.400Z,4.70
2023-10-05T22:18:23.245Z,4.13
2023-10-05T22:20:50.976Z,3.60
2023-10-05T22:23:17.951Z,4.17
2023-10-05T22:25:44.759Z,3.90
2023-10-05T22:28:11.663Z,3.83
2023-10-05T22:30:41.302Z,4.37
2023-10-05T22:33:10.454Z,3.87
2023-10-05T22:35:38.904Z,4.23
2023-10-05T22:38:06.070Z,3.90
2023-10-05T22:40:36.612Z,3.73
2023-10-05T22:43:03.744Z,4.03
2023-10-05T22:45:31.671Z,3.57
2023-10-05T22:47:58.536Z,4.50
2023-10-05T22:50:25.432Z,4.23
2023-10-05T22:52:52.370Z,3.77
2023-10-05T22:55:19.500Z,3.70
2023-10-05T22:57:46.492Z,4.20
2023-10-05T23:00:13.645Z,4.50
2023-10-05T23:02:40.708Z,4.03
2023-10-05T23:05:08.216Z,4.23
2023-10-05T23:07:35.411Z,4.10
2023-10-05T23:10:06.209Z,4.13
2023-10-05T23:12:34.534Z,4.30
2023-10-05T23:15:10.952Z,4.30
2023-10-05T23:17:38.172Z,4.03
2023-10-05T23:20:08.707Z,3.90
2023-10-05T23:22:41.803Z,3.93
2023-10-05T23:25:19.686Z,3.87
2023-10-05T23:27:48.320Z,4.13
2023-10-05T23:30:16.397Z,3.90
2023-10-05T23:32:47.874Z,4.53
2023-10-05T23:35:20.346Z,4.37
2023-10-05T23:37:53.715Z,4.33
2023-10-05T23:40:26.168Z,5.30
2023-10-05T23:42:53.970Z,4.63
2023-10-05T23:45:24.153Z,5.17
2023-10-05T23:47:55.532Z,4.67
2023-10-05T23:50:27.018Z,4.73
2023-10-05T23:52:59.543Z,5.03
2023-10-05T23:55:27.814Z,5.30
2023-10-05T23:57:55.621Z,4.83
